createdAt,value
2022-10-28T00:01:18.596Z,4.50
2022-10-28T00:03:47.366Z,4.83
2022-10-28T00:06:22.819Z,4.30
2022-10-28T00:08:49.683Z,4.50
2022-10-28T00:11:18.953Z,4.50
2022-10-28T00:13:46.039Z,3.87
2022-10-28T00:16:20.745Z,4.73
2022-10-28T00:18:47.645Z,5.20
2022-10-28T00:21:17.071Z,5.17
2022-10-28T00:23:44.103Z,5.07
2022-10-28T00:26:13.064Z,4.87
2022-10-28T00:28:44.921Z,4.70
2022-10-28T00:31:12.791Z,4.23
2022-10-28T00:33:39.283Z,4.07
2022-10-28T00:36:10.379Z,4.10
2022-10-28T00:38:36.839Z,4.40
2022-10-28T00:41:03.408Z,4.27
2022-10-28T00:43:45.063Z,4.53
2022-10-28T00:46:16.636Z,4.00
2022-10-28T00:48:46.000Z,4.60
2022-10-28T00:51:13.656Z,5.27
2022-10-28T00:53:42.129Z,4.50
2022-10-28T00:56:08.876Z,3.40
2022-10-28T00:58:35.751Z,3.70
2022-10-28T01:01:02.211Z,4.27
2022-10-28T01:03:28.729Z,4.03
2022-10-28T01:05:55.494Z,4.37
2022-10-28T01:08:21.975Z,3.63
2022-10-28T01:10:57.610Z,4.33
2022-10-28T01:13:46.437Z,4.07
2022-10-28T01:16:15.772Z,3.60
2022-10-28T01:19:01.273Z,4.17
2022-10-28T01:21:52.687Z,5.03
2022-10-28T01:24:31.151Z,3.70
2022-10-28T01:27:19.490Z,3.70
2022-10-28T01:29:58.275Z,3.77
2022-10-28T01:32:30.798Z,3.67
2022-10-28T01:35:15.120Z,3.90
2022-10-28T01:38:09.348Z,4.00
2022-10-28T01:40:45.624Z,3.40
2022-10-28T01:43:14.354Z,4.10
2022-10-28T01:45:48.262Z,4.60
2022-10-28T01:48:45.418Z,3.93
2022-10-28T01:51:20.387Z,3.50
2022-10-28T01:53:49.481Z,3.90
2022-10-28T01:56:19.158Z,3.73
2022-10-28T01:58:45.938Z,3.60
2022-10-28T02:01:13.388Z,4.20
2022-10-28T02:03:39.973Z,4.70
2022-10-28T02:06:15.118Z,4.07
2022-10-28T02:09:15.697Z,4.10
2022-10-28T02:11:57.896Z,4.63
2022-10-28T02:14:36.543Z,4.20
2022-10-28T02:17:05.953Z,4.07
2022-10-28T02:19:41.641Z,4.30
2022-10-28T02:22:34.536Z,4.33
2022-10-28T02:25:17.447Z,3.80
2022-10-28T02:27:49.831Z,4.03
2022-10-28T02:30:22.867Z,4.80
2022-10-28T02:32:56.800Z,3.90
2022-10-28T02:35:36.482Z,4.20
2022-10-28T02:38:07.789Z,4.37
2022-10-28T02:40:35.120Z,4.13
2022-10-28T02:43:04.030Z,4.43
2022-10-28T02:45:52.536Z,4.70
2022-10-28T02:48:22.669Z,4.53
2022-10-28T02:51:09.658Z,4.90
2022-10-28T02:53:47.990Z,3.83
2022-10-28T02:56:15.978Z,4.93
2022-10-28T02:58:42.399Z,4.10
2022-10-28T03:01:09.019Z,4.37
2022-10-28T03:03:35.624Z,4.40
2022-10-28T03:06:02.079Z,4.83
2022-10-28T03:08:28.520Z,4.23
2022-10-28T03:10:55.072Z,5.17
2022-10-28T03:13:21.517Z,6.03
2022-10-28T03:15:48.004Z,5.03
2022-10-28T03:18:14.472Z,4.30
2022-10-28T03:20:40.884Z,4.60
2022-10-28T03:23:07.393Z,4.80
2022-10-28T03:25:33.824Z,4.23
2022-10-28T03:28:00.257Z,3.90
2022-10-28T03:30:26.764Z,4.27
2022-10-28T03:32:53.398Z,4.17
2022-10-28T03:35:20.132Z,3.50
2022-10-28T03:37:46.576Z,4.40
2022-10-28T03:40:13.381Z,4.50
2022-10-28T03:42:43.147Z,4.13
2022-10-28T03:45:10.137Z,4.03
2022-10-28T03:47:36.846Z,3.87
2022-10-28T03:50:03.893Z,4.10
2022-10-28T03:52:30.423Z,4.00
2022-10-28T03:54:56.873Z,4.20
2022-10-28T03:57:23.378Z,9.23
2022-10-28T03:59:49.793Z,8.40
2022-10-28T04:02:16.485Z,4.50
2022-10-28T04:04:43.095Z,4.27
2022-10-28T04:07:09.541Z,5.10
2022-10-28T04:09:36.026Z,3.80
2022-10-28T04:12:02.770Z,3.87
2022-10-28T04:14:29.273Z,4.60
2022-10-28T04:16:55.728Z,4.53
2022-10-28T04:19:22.175Z,4.47
2022-10-28T04:21:48.596Z,4.10
2022-10-28T04:24:15.008Z,4.10
2022-10-28T04:26:41.458Z,4.80
2022-10-28T04:29:07.918Z,6.63
2022-10-28T04:31:34.421Z,4.83
2022-10-28T04:34:00.849Z,6.30
2022-10-28T04:36:27.319Z,6.40
2022-10-28T04:38:53.768Z,6.27
2022-10-28T04:41:20.406Z,5.53
2022-10-28T04:43:46.889Z,4.60
2022-10-28T04:46:13.492Z,4.60
2022-10-28T04:48:40.044Z,4.70
2022-10-28T04:51:06.852Z,3.93
2022-10-28T04:53:33.397Z,4.30
2022-10-28T04:56:00.200Z,4.50
2022-10-28T04:58:27.106Z,4.50
2022-10-28T05:00:53.686Z,4.23
2022-10-28T05:03:20.282Z,4.70
2022-10-28T05:05:47.798Z,4.50
2022-10-28T05:08:14.568Z,4.83
2022-10-28T05:10:41.145Z,6.00
2022-10-28T05:13:07.674Z,5.33
2022-10-28T05:15:34.143Z,4.90
2022-10-28T05:18:00.664Z,3.73
2022-10-28T05:20:27.293Z,3.90
2022-10-28T05:22:55.339Z,4.27
2022-10-28T05:25:23.104Z,3.80
2022-10-28T05:27:49.840Z,4.63
2022-10-28T05:30:16.574Z,4.17
2022-10-28T05:32:43.728Z,4.77
2022-10-28T05:35:10.586Z,3.83
2022-10-28T05:37:37.468Z,4.40
2022-10-28T05:40:04.781Z,4.30
2022-10-28T05:42:31.449Z,6.13
2022-10-28T05:44:57.887Z,4.63
2022-10-28T05:47:24.370Z,4.83
2022-10-28T05:49:50.872Z,5.53
2022-10-28T05:52:17.352Z,4.13
2022-10-28T05:54:43.865Z,4.70
2022-10-28T05:57:10.305Z,4.73
2022-10-28T05:59:36.737Z,5.83
2022-10-28T06:02:03.426Z,5.47
2022-10-28T06:04:31.092Z,5.00
2022-10-28T06:06:57.547Z,4.40
2022-10-28T06:09:24.018Z,5.13
2022-10-28T06:11:48.966Z,5.23
2022-10-28T06:14:15.455Z,4.50
2022-10-28T06:16:42.361Z,4.60
2022-10-28T06:19:08.886Z,5.63
2022-10-28T06:21:35.313Z,4.80
2022-10-28T06:24:01.915Z,4.73
2022-10-28T06:26:28.406Z,5.40
2022-10-28T06:28:54.955Z,5.63
2022-10-28T06:31:21.462Z,5.37
2022-10-28T06:33:47.950Z,6.67
2022-10-28T06:36:14.476Z,5.73
2022-10-28T06:38:41.029Z,4.57
2022-10-28T06:41:07.774Z,5.77
2022-10-28T06:43:34.223Z,5.20
2022-10-28T06:46:02.096Z,5.30
2022-10-28T06:48:30.079Z,4.53
2022-10-28T06:50:57.672Z,4.80
2022-10-28T06:53:25.300Z,5.07
2022-10-28T06:55:53.303Z,4.60
2022-10-28T06:58:20.003Z,4.70
2022-10-28T07:00:46.441Z,5.43
2022-10-28T07:03:13.075Z,4.97
2022-10-28T07:05:39.580Z,4.63
2022-10-28T07:08:06.160Z,4.73
2022-10-28T07:10:32.732Z,4.43
2022-10-28T07:12:59.238Z,4.50
2022-10-28T07:15:25.927Z,3.63
2022-10-28T07:17:57.208Z,3.73
2022-10-28T07:20:24.782Z,4.10
2022-10-28T07:22:59.473Z,5.00
2022-10-28T07:25:27.468Z,5.03
2022-10-28T07:27:54.458Z,4.80
2022-10-28T07:30:21.197Z,4.17
2022-10-28T07:32:47.689Z,5.30
2022-10-28T07:35:14.292Z,4.50
2022-10-28T07:37:40.785Z,4.77
2022-10-28T07:40:07.937Z,5.20
2022-10-28T07:42:34.919Z,4.60
2022-10-28T07:45:01.841Z,5.20
2022-10-28T07:47:28.926Z,5.30
2022-10-28T07:49:55.397Z,4.50
2022-10-28T07:52:22.214Z,4.80
2022-10-28T07:54:48.717Z,4.37
2022-10-28T07:57:15.156Z,5.40
2022-10-28T07:59:41.631Z,5.07
2022-10-28T08:02:12.197Z,4.23
2022-10-28T08:04:38.727Z,5.13
2022-10-28T08:07:05.426Z,4.73
2022-10-28T08:09:32.198Z,4.27
2022-10-28T08:11:58.898Z,4.30
2022-10-28T08:14:25.542Z,5.33
2022-10-28T08:16:52.181Z,5.20
2022-10-28T08:19:19.231Z,4.63
2022-10-28T08:21:46.825Z,5.23
2022-10-28T08:24:13.312Z,4.67
2022-10-28T08:26:40.362Z,4.17
2022-10-28T08:29:08.060Z,5.30
2022-10-28T08:31:34.630Z,4.53
2022-10-28T08:34:01.099Z,5.10
2022-10-28T08:36:28.473Z,4.70
2022-10-28T08:38:54.951Z,5.63
2022-10-28T08:41:38.368Z,4.83
2022-10-28T08:44:10.911Z,5.13
2022-10-28T08:46:37.374Z,4.60
2022-10-28T08:49:10.203Z,4.63
2022-10-28T08:51:45.833Z,4.70
2022-10-28T08:54:19.361Z,5.33
2022-10-28T08:56:48.356Z,4.63
2022-10-28T08:59:22.013Z,5.67
2022-10-28T09:01:51.958Z,4.47
2022-10-28T09:04:26.719Z,4.00
2022-10-28T09:06:53.787Z,5.40
2022-10-28T09:09:22.560Z,5.33
2022-10-28T09:12:03.264Z,4.23
2022-10-28T09:14:34.577Z,5.13
2022-10-28T09:17:10.147Z,4.93
2022-10-28T09:19:45.434Z,4.63
2022-10-28T09:22:24.622Z,5.03
2022-10-28T09:24:56.813Z,5.13
2022-10-28T09:27:36.763Z,4.73
2022-10-28T09:30:18.592Z,5.43
2022-10-28T09:32:56.072Z,5.30
2022-10-28T09:35:25.211Z,4.60
2022-10-28T09:38:20.845Z,5.30
2022-10-28T09:40:52.367Z,4.70
2022-10-28T09:43:27.889Z,5.40
2022-10-28T09:46:18.255Z,5.13
2022-10-28T09:48:50.155Z,4.63
2022-10-28T09:51:43.208Z,4.53
2022-10-28T09:54:10.746Z,4.87
2022-10-28T09:56:37.448Z,5.30
2022-10-28T09:59:04.640Z,5.07
2022-10-28T10:01:34.252Z,5.03
2022-10-28T10:04:01.045Z,5.00
2022-10-28T10:06:36.228Z,5.43
2022-10-28T10:09:03.238Z,5.43
2022-10-28T10:11:29.779Z,4.60
2022-10-28T10:13:58.221Z,4.57
2022-10-28T10:16:39.872Z,5.53
2022-10-28T10:19:08.060Z,4.63
2022-10-28T10:21:42.595Z,5.10
2022-10-28T10:24:30.768Z,5.20
2022-10-28T10:27:09.665Z,5.03
2022-10-28T10:29:37.080Z,6.53
2022-10-28T10:32:26.751Z,6.40
2022-10-28T10:35:19.106Z,5.83
2022-10-28T10:37:47.300Z,5.80
2022-10-28T10:40:49.922Z,6.17
2022-10-28T10:43:29.604Z,6.10
2022-10-28T10:45:59.007Z,6.73
2022-10-28T10:48:25.691Z,5.00
2022-10-28T10:50:52.777Z,9.10
2022-10-28T10:53:31.056Z,6.13
2022-10-28T10:56:05.343Z,5.57
2022-10-28T10:58:38.372Z,5.93
2022-10-28T11:01:07.276Z,6.03
2022-10-28T11:03:40.391Z,5.13
2022-10-28T11:06:24.734Z,6.00
2022-10-28T11:08:57.324Z,5.57
2022-10-28T11:11:33.242Z,5.37
2022-10-28T11:14:08.959Z,4.50
2022-10-28T11:16:54.500Z,5.00
2022-10-28T11:19:28.107Z,4.73
2022-10-28T11:22:09.742Z,4.60
2022-10-28T11:24:39.191Z,4.37
2022-10-28T11:27:21.393Z,4.17
2022-10-28T11:29:48.377Z,5.10
2022-10-28T11:32:48.762Z,4.73
2022-10-28T11:35:40.861Z,4.80
2022-10-28T11:38:24.602Z,5.93
2022-10-28T11:41:22.257Z,5.43
2022-10-28T11:43:55.730Z,6.30
2022-10-28T11:46:48.892Z,4.60
2022-10-28T11:49:24.477Z,4.93
2022-10-28T11:52:12.838Z,4.33
2022-10-28T11:54:54.554Z,5.53
2022-10-28T11:57:37.932Z,4.30
2022-10-28T12:00:13.719Z,5.40
2022-10-28T12:02:49.385Z,4.70
2022-10-28T12:05:21.905Z,5.53
2022-10-28T12:08:07.095Z,4.70
2022-10-28T12:11:02.740Z,4.87
2022-10-28T12:13:55.313Z,4.27
2022-10-28T12:16:26.005Z,5.67
2022-10-28T12:18:56.436Z,6.10
2022-10-28T12:21:41.436Z,4.60
2022-10-28T12:24:15.869Z,4.37
2022-10-28T12:26:54.716Z,5.17
2022-10-28T12:29:33.588Z,5.50
2022-10-28T12:32:07.715Z,4.60
2022-10-28T12:34:37.863Z,4.73
2022-10-28T12:37:13.903Z,4.77
2022-10-28T12:39:45.401Z,4.67
2022-10-28T12:42:18.476Z,4.80
2022-10-28T12:44:46.817Z,4.60
2022-10-28T12:47:22.268Z,4.43
2022-10-28T12:50:10.679Z,4.50
2022-10-28T12:53:01.801Z,4.00
2022-10-28T12:55:42.338Z,3.90
2022-10-28T12:58:19.418Z,4.60
2022-10-28T13:00:51.385Z,4.83
2022-10-28T13:03:18.848Z,5.50
2022-10-28T13:05:54.049Z,5.40
2022-10-28T13:09:11.541Z,5.37
2022-10-28T13:12:05.801Z,5.13
2022-10-28T13:14:53.739Z,5.40
2022-10-28T13:17:42.217Z,4.40
2022-10-28T13:20:27.466Z,5.10
2022-10-28T13:23:21.973Z,4.63
2022-10-28T13:25:57.788Z,4.90
2022-10-28T13:28:29.433Z,5.00
2022-10-28T13:31:01.238Z,5.07
2022-10-28T13:33:29.000Z,3.63
2022-10-28T13:36:15.950Z,4.70
2022-10-28T13:38:44.041Z,4.77
2022-10-28T13:41:20.222Z,4.43
2022-10-28T13:43:49.679Z,5.90
2022-10-28T13:46:54.030Z,5.63
2022-10-28T13:49:24.476Z,4.40
2022-10-28T13:51:52.829Z,4.80
2022-10-28T13:54:43.316Z,4.13
2022-10-28T13:57:25.228Z,4.70
2022-10-28T13:59:57.006Z,4.90
2022-10-28T14:02:36.576Z,3.47
2022-10-28T14:05:09.133Z,4.93
2022-10-28T14:07:52.231Z,4.70
2022-10-28T14:10:28.099Z,4.07
2022-10-28T14:13:00.326Z,4.63
2022-10-28T14:15:28.755Z,4.73
2022-10-28T14:18:15.898Z,3.90
2022-10-28T14:20:51.339Z,4.13
2022-10-28T14:23:20.715Z,5.13
2022-10-28T14:25:50.252Z,4.90
2022-10-28T14:28:31.962Z,4.37
2022-10-28T14:31:07.699Z,4.23
2022-10-28T14:33:35.733Z,4.00
2022-10-28T14:36:17.521Z,4.97
2022-10-28T14:38:53.136Z,5.70
2022-10-28T14:41:33.806Z,4.33
2022-10-28T14:44:18.302Z,4.40
2022-10-28T14:46:55.801Z,4.40
2022-10-28T14:49:26.195Z,4.50
2022-10-28T14:51:53.301Z,4.63
2022-10-28T14:54:57.925Z,5.27
2022-10-28T14:57:34.172Z,4.37
2022-10-28T15:00:04.172Z,5.57
2022-10-28T15:02:32.904Z,4.47
2022-10-28T15:05:20.452Z,4.70
2022-10-28T15:07:47.620Z,4.80
2022-10-28T15:10:19.742Z,5.10
2022-10-28T15:12:48.991Z,4.37
2022-10-28T15:15:24.048Z,6.00
2022-10-28T15:17:50.991Z,7.80
2022-10-28T15:20:25.373Z,4.57
2022-10-28T15:22:53.435Z,4.40
2022-10-28T15:25:22.273Z,4.43
2022-10-28T15:27:51.763Z,5.07
2022-10-28T15:30:20.788Z,5.00
2022-10-28T15:32:47.332Z,4.40
2022-10-28T15:35:29.872Z,4.67
2022-10-28T15:37:59.224Z,4.60
2022-10-28T15:40:30.624Z,6.07
2022-10-28T15:43:02.495Z,4.70
2022-10-28T15:45:31.096Z,4.77
2022-10-28T15:47:58.713Z,5.43
2022-10-28T15:50:33.117Z,5.27
2022-10-28T15:53:11.938Z,4.83
2022-10-28T15:56:06.875Z,5.60
2022-10-28T15:58:28.985Z,5.10
2022-10-28T16:00:56.950Z,6.23
2022-10-28T16:03:48.436Z,4.47
2022-10-28T16:06:26.713Z,4.60
2022-10-28T16:09:14.773Z,4.67
2022-10-28T16:11:47.258Z,4.90
2022-10-28T16:14:29.756Z,4.90
2022-10-28T16:19:38.562Z,4.30
2022-10-28T16:22:05.281Z,5.30
2022-10-28T16:24:31.747Z,4.93
2022-10-28T16:27:18.705Z,4.90
2022-10-28T16:29:45.536Z,5.77
2022-10-28T16:32:12.624Z,5.67
2022-10-28T16:34:39.710Z,5.40
2022-10-28T16:37:33.118Z,5.20
2022-10-28T16:39:59.846Z,5.00
2022-10-28T16:42:26.807Z,5.60
2022-10-28T16:44:54.474Z,6.00
2022-10-28T16:47:22.996Z,5.20
2022-10-28T16:49:54.032Z,5.17
2022-10-28T16:52:26.191Z,5.13
2022-10-28T16:54:52.653Z,5.20
2022-10-28T16:57:20.049Z,5.67
2022-10-28T16:59:47.046Z,6.00
2022-10-28T17:02:33.555Z,5.87
2022-10-28T17:05:01.084Z,5.50
2022-10-28T17:07:28.251Z,5.30
2022-10-28T17:09:54.842Z,5.63
2022-10-28T17:12:23.552Z,5.67
2022-10-28T17:14:53.284Z,6.43
2022-10-28T17:17:20.024Z,5.50
2022-10-28T17:19:46.809Z,6.87
2022-10-28T17:22:13.612Z,7.30
2022-10-28T17:24:40.100Z,6.10
2022-10-28T17:27:07.646Z,8.97
2022-10-28T17:29:34.156Z,6.17
2022-10-28T17:32:00.643Z,6.73
2022-10-28T17:34:52.670Z,6.63
2022-10-28T17:37:19.166Z,6.33
2022-10-28T17:39:45.658Z,6.67
2022-10-28T17:42:12.241Z,6.53
2022-10-28T17:44:38.726Z,7.93
2022-10-28T17:47:05.192Z,5.43
2022-10-28T17:49:34.181Z,6.20
2022-10-28T17:52:00.677Z,7.87
2022-10-28T17:54:28.043Z,5.90
2022-10-28T17:56:54.579Z,6.83
2022-10-28T17:59:21.025Z,6.60
2022-10-28T18:01:47.651Z,7.30
2022-10-28T18:04:14.428Z,7.90
2022-10-28T18:06:41.002Z,8.07
2022-10-28T18:09:14.168Z,8.13
2022-10-28T18:11:41.084Z,7.30
2022-10-28T18:14:07.567Z,7.80
2022-10-28T18:16:36.360Z,7.13
2022-10-28T18:19:05.112Z,8.00
2022-10-28T18:21:31.774Z,7.23
2022-10-28T18:24:07.251Z,7.67
2022-10-28T18:26:35.362Z,7.17
2022-10-28T18:29:05.269Z,7.50
2022-10-28T18:31:33.072Z,8.37
2022-10-28T18:34:00.948Z,7.17
2022-10-28T18:36:30.557Z,8.00
2022-10-28T18:38:57.792Z,7.77
2022-10-28T18:41:26.325Z,6.90
2022-10-28T18:43:57.859Z,7.90
2022-10-28T18:46:25.585Z,6.80
2022-10-28T18:48:52.143Z,7.70
2022-10-28T18:51:18.829Z,7.80
2022-10-28T18:53:47.478Z,8.00
2022-10-28T18:56:16.605Z,8.17
2022-10-28T18:58:43.573Z,9.13
2022-10-28T19:01:11.089Z,7.37
2022-10-28T19:03:38.137Z,7.50
2022-10-28T19:06:10.764Z,6.93
2022-10-28T19:08:37.602Z,7.97
2022-10-28T19:11:05.215Z,7.17
2022-10-28T19:13:36.906Z,8.17
2022-10-28T19:16:03.703Z,6.90
2022-10-28T19:18:32.470Z,6.07
2022-10-28T19:21:08.143Z,6.93
2022-10-28T19:23:34.823Z,7.03
2022-10-28T19:26:01.414Z,6.07
2022-10-28T19:28:28.143Z,6.60
2022-10-28T19:31:02.124Z,6.20
2022-10-28T19:33:30.148Z,6.00
2022-10-28T19:36:04.927Z,6.93
2022-10-28T19:38:32.715Z,7.53
2022-10-28T19:41:13.577Z,7.97
2022-10-28T19:43:40.548Z,6.63
2022-10-28T19:46:12.900Z,6.77
2022-10-28T19:48:40.789Z,7.67
2022-10-28T19:51:08.403Z,8.13
2022-10-28T19:53:34.897Z,7.00
2022-10-28T19:56:02.687Z,8.73
2022-10-28T19:58:30.266Z,7.83
2022-10-28T20:00:58.634Z,8.20
2022-10-28T20:03:25.080Z,9.00
2022-10-28T20:06:07.163Z,8.40
2022-10-28T20:08:35.351Z,8.53
2022-10-28T20:11:04.330Z,9.80
2022-10-28T20:13:31.165Z,11.07
2022-10-28T20:16:01.394Z,7.77
2022-10-28T20:18:32.249Z,7.63
2022-10-28T20:21:11.316Z,8.00
2022-10-28T20:23:38.578Z,7.80
2022-10-28T20:26:05.580Z,8.57
2022-10-28T20:28:32.164Z,7.30
2022-10-28T20:31:00.674Z,8.00
2022-10-28T20:33:30.661Z,7.20
2022-10-28T20:35:58.509Z,6.40
2022-10-28T20:38:25.575Z,7.37
2022-10-28T20:40:55.584Z,7.13
2022-10-28T20:43:23.433Z,7.47
2022-10-28T20:45:54.883Z,7.93
2022-10-28T20:48:22.220Z,7.03
2022-10-28T20:50:52.696Z,7.20
2022-10-28T20:53:21.761Z,7.70
2022-10-28T20:55:52.325Z,7.40
2022-10-28T20:58:20.201Z,7.40
2022-10-28T21:00:46.741Z,7.43
2022-10-28T21:03:14.224Z,6.87
2022-10-28T21:05:41.495Z,8.30
2022-10-28T21:08:09.302Z,7.10
2022-10-28T21:10:36.795Z,7.37
2022-10-28T21:13:03.932Z,7.50
2022-10-28T21:15:34.536Z,8.13
2022-10-28T21:18:01.035Z,7.80
2022-10-28T21:20:27.556Z,12.37
2022-10-28T21:22:54.292Z,8.47
2022-10-28T21:25:20.997Z,8.77
2022-10-28T21:27:47.482Z,8.63
2022-10-28T21:30:14.011Z,9.50
2022-10-28T21:32:40.571Z,8.77
2022-10-28T21:35:07.526Z,8.60
2022-10-28T21:37:34.486Z,8.67
2022-10-28T21:40:01.331Z,9.17
2022-10-28T21:42:27.861Z,9.57
2022-10-28T21:44:54.448Z,9.43
2022-10-28T21:49:52.247Z,9.30
2022-10-28T21:52:18.988Z,10.23
2022-10-28T21:54:45.589Z,9.70
2022-10-28T21:57:12.444Z,9.93
2022-10-28T21:59:38.907Z,9.27
2022-10-28T22:02:05.493Z,8.63
2022-10-28T22:04:32.069Z,8.60
2022-10-28T22:06:59.092Z,8.50
2022-10-28T22:09:25.500Z,8.23
2022-10-28T22:11:51.949Z,9.67
2022-10-28T22:14:18.626Z,8.00
2022-10-28T22:16:45.110Z,7.40
2022-10-28T22:19:14.470Z,8.90
2022-10-28T22:21:41.128Z,8.20
2022-10-28T22:24:08.101Z,8.07
2022-10-28T22:26:34.809Z,8.70
2022-10-28T22:29:01.328Z,8.90
2022-10-28T22:31:31.404Z,8.77
2022-10-28T22:33:58.596Z,8.77
2022-10-28T22:36:26.853Z,8.83
2022-10-28T22:38:53.969Z,8.60
2022-10-28T22:41:24.274Z,8.87
2022-10-28T22:43:55.667Z,9.07
2022-10-28T22:46:23.458Z,9.57
2022-10-28T22:48:50.014Z,9.23
2022-10-28T22:51:16.749Z,9.43
2022-10-28T22:53:43.351Z,10.43
2022-10-28T22:56:14.527Z,10.73
2022-10-28T22:58:41.151Z,10.17
2022-10-28T23:01:13.280Z,12.90
2022-10-28T23:03:42.145Z,10.00
2022-10-28T23:06:09.994Z,10.07
2022-10-28T23:08:38.675Z,10.63
2022-10-28T23:11:05.855Z,10.07
2022-10-28T23:13:32.707Z,9.53
2022-10-28T23:16:03.959Z,9.90
2022-10-28T23:18:30.493Z,10.43
2022-10-28T23:20:56.951Z,11.23
2022-10-28T23:23:23.475Z,10.87
2022-10-28T23:25:54.112Z,10.37
2022-10-28T23:28:21.079Z,10.13
2022-10-28T23:30:47.596Z,11.97
2022-10-28T23:33:14.304Z,10.00
2022-10-28T23:35:42.669Z,10.77
2022-10-28T23:38:11.682Z,11.70
2022-10-28T23:40:38.469Z,11.03
2022-10-28T23:43:04.996Z,12.00
2022-10-28T23:45:31.412Z,10.10
2022-10-28T23:47:57.845Z,10.40
2022-10-28T23:50:24.510Z,11.20
2022-10-28T23:52:55.554Z,10.77
2022-10-28T23:55:22.213Z,11.23
2022-10-28T23:57:48.732Z,11.40
